createdAt,value
2023-05-20T00:01:25.469Z,49.10
2023-05-20T00:03:52.598Z,48.70
2023-05-20T00:06:19.933Z,49.00
2023-05-20T00:08:46.984Z,49.30
2023-05-20T00:11:13.960Z,49.00
2023-05-20T00:13:41.011Z,48.50
2023-05-20T00:16:08.082Z,48.50
2023-05-20T00:18:35.305Z,48.30
2023-05-20T00:21:02.332Z,49.20
2023-05-20T00:23:29.354Z,49.00
2023-05-20T00:25:58.377Z,49.00
2023-05-20T00:28:26.880Z,48.70
2023-05-20T00:30:54.932Z,48.50
2023-05-20T00:33:21.933Z,48.80
2023-05-20T00:35:49.113Z,48.80
2023-05-20T00:38:16.196Z,49.10
2023-05-20T00:40:43.140Z,49.10
2023-05-20T00:43:10.239Z,48.70
2023-05-20T00:45:38.391Z,49.30
2023-05-20T00:48:06.468Z,48.90
2023-05-20T00:50:33.951Z,49.10
2023-05-20T00:53:01.533Z,48.60
2023-05-20T00:55:28.751Z,49.30
2023-05-20T00:57:56.149Z,49.90
2023-05-20T01:00:23.462Z,49.80
2023-05-20T01:02:50.957Z,50.10
2023-05-20T01:05:18.161Z,49.60
2023-05-20T01:07:45.441Z,49.90
2023-05-20T01:10:12.527Z,50.10
2023-05-20T01:13:01.765Z,49.80
2023-05-20T01:15:30.210Z,49.60
2023-05-20T01:18:01.844Z,49.50
2023-05-20T01:20:32.606Z,50.20
2023-05-20T01:22:59.960Z,50.20
2023-05-20T01:25:27.066Z,50.40
2023-05-20T01:27:57.764Z,50.10
2023-05-20T01:30:30.813Z,50.50
2023-05-20T01:33:07.098Z,50.10
2023-05-20T01:35:35.470Z,50.20
2023-05-20T01:38:05.442Z,50.70
2023-05-20T01:40:33.887Z,50.10
2023-05-20T01:43:02.945Z,50.30
2023-05-20T01:45:30.052Z,50.30
2023-05-20T01:47:57.037Z,50.10
2023-05-20T01:50:26.543Z,50.50
2023-05-20T01:52:54.127Z,50.70
2023-05-20T01:55:21.166Z,50.40
2023-05-20T01:57:48.121Z,51.10
2023-05-20T02:00:15.333Z,51.10
2023-05-20T02:02:44.661Z,50.20
2023-05-20T02:05:12.983Z,50.90
2023-05-20T02:07:42.719Z,50.60
2023-05-20T02:10:10.503Z,50.60
2023-05-20T02:12:37.725Z,51.00
2023-05-20T02:15:05.871Z,51.30
2023-05-20T02:17:32.902Z,51.30
2023-05-20T02:19:59.969Z,51.00
2023-05-20T02:22:26.928Z,51.40
2023-05-20T02:24:53.883Z,51.60
2023-05-20T02:27:20.846Z,51.60
2023-05-20T02:29:47.796Z,51.80
2023-05-20T02:32:14.778Z,52.00
2023-05-20T02:34:41.968Z,51.00
2023-05-20T02:37:08.943Z,51.30
2023-05-20T02:39:36.002Z,51.60
2023-05-20T02:42:04.623Z,51.70
2023-05-20T02:44:31.719Z,51.00
2023-05-20T02:46:58.667Z,51.90
2023-05-20T02:49:25.744Z,51.20
2023-05-20T02:51:52.695Z,51.80
2023-05-20T02:54:19.729Z,51.60
2023-05-20T02:56:46.706Z,52.00
2023-05-20T02:59:13.817Z,51.60
2023-05-20T03:01:41.216Z,52.00
2023-05-20T03:04:08.703Z,52.70
2023-05-20T03:06:38.178Z,51.40
2023-05-20T03:09:05.953Z,52.10
2023-05-20T03:11:32.930Z,52.10
2023-05-20T03:14:00.041Z,52.30
2023-05-20T03:16:28.253Z,52.30
2023-05-20T03:18:55.420Z,52.30
2023-05-20T03:21:24.117Z,51.80
2023-05-20T03:23:51.350Z,52.90
2023-05-20T03:26:19.282Z,52.70
2023-05-20T03:28:46.327Z,52.80
2023-05-20T03:31:13.465Z,53.30
2023-05-20T03:33:40.738Z,52.40
2023-05-20T03:36:07.872Z,52.50
2023-05-20T03:38:35.077Z,53.10
2023-05-20T03:41:02.021Z,52.80
2023-05-20T03:43:28.998Z,53.90
2023-05-20T03:45:56.923Z,53.70
2023-05-20T03:48:24.006Z,54.10
2023-05-20T03:50:51.115Z,53.40
2023-05-20T03:53:20.124Z,53.60
2023-05-20T03:55:47.173Z,54.10
2023-05-20T03:58:15.453Z,53.80
2023-05-20T04:00:42.649Z,54.10
2023-05-20T04:03:10.544Z,53.70
2023-05-20T04:05:37.828Z,53.10
2023-05-20T04:08:13.681Z,54.60
2023-05-20T04:10:43.945Z,54.50
2023-05-20T04:13:12.185Z,54.20
2023-05-20T04:15:39.908Z,53.30
2023-05-20T04:18:07.022Z,54.20
2023-05-20T04:20:34.671Z,53.70
2023-05-20T04:23:02.132Z,54.30
2023-05-20T04:25:29.223Z,54.70
2023-05-20T04:27:57.815Z,55.20
2023-05-20T04:30:25.216Z,54.40
2023-05-20T04:32:52.258Z,54.80
2023-05-20T04:35:19.633Z,55.00
2023-05-20T04:37:49.261Z,55.40
2023-05-20T04:40:17.168Z,54.70
2023-05-20T04:42:44.896Z,55.20
2023-05-20T04:45:12.675Z,55.60
2023-05-20T04:47:41.893Z,55.20
2023-05-20T04:50:16.377Z,55.10
2023-05-20T04:52:43.830Z,55.30
2023-05-20T04:55:12.047Z,55.00
2023-05-20T04:57:42.011Z,54.50
2023-05-20T05:00:10.866Z,54.50
2023-05-20T05:02:38.542Z,54.90
2023-05-20T05:05:06.795Z,54.90
2023-05-20T05:07:33.967Z,54.70
2023-05-20T05:10:01.286Z,54.80
2023-05-20T05:12:30.696Z,54.60
2023-05-20T05:14:59.242Z,54.50
2023-05-20T05:17:28.763Z,54.90
2023-05-20T05:19:57.057Z,54.40
2023-05-20T05:22:24.582Z,54.90
2023-05-20T05:24:52.377Z,55.60
2023-05-20T05:27:19.358Z,55.50
2023-05-20T05:29:46.593Z,54.80
2023-05-20T05:32:13.579Z,54.80
2023-05-20T05:34:41.004Z,55.40
2023-05-20T05:37:07.995Z,55.20
2023-05-20T05:39:37.713Z,54.80
2023-05-20T05:42:05.519Z,54.50
2023-05-20T05:44:33.945Z,55.10
2023-05-20T05:47:01.482Z,54.80
2023-05-20T05:49:28.557Z,54.60
2023-05-20T05:51:55.635Z,55.10
2023-05-20T05:54:22.789Z,54.80
2023-05-20T05:56:54.117Z,54.70
2023-05-20T05:59:21.509Z,54.90
2023-05-20T06:01:49.272Z,54.80
2023-05-20T06:04:16.836Z,54.40
2023-05-20T06:06:43.950Z,54.60
2023-05-20T06:09:10.987Z,54.40
2023-05-20T06:11:38.010Z,54.90
2023-05-20T06:14:04.994Z,55.30
2023-05-20T06:16:32.025Z,54.80
2023-05-20T06:19:03.473Z,54.60
2023-05-20T06:21:32.626Z,54.30
2023-05-20T06:23:59.791Z,54.40
2023-05-20T06:26:27.218Z,55.10
2023-05-20T06:28:54.358Z,54.50
2023-05-20T06:31:22.380Z,55.10
2023-05-20T06:33:50.172Z,54.90
2023-05-20T06:36:17.727Z,54.70
2023-05-20T06:38:44.895Z,55.00
2023-05-20T06:41:14.490Z,54.70
2023-05-20T06:43:41.761Z,54.30
2023-05-20T06:46:31.431Z,54.40
2023-05-20T06:49:06.659Z,54.60
2023-05-20T06:51:33.891Z,54.40
2023-05-20T06:54:01.526Z,54.10
2023-05-20T06:56:28.740Z,54.20
2023-05-20T06:58:56.023Z,54.00
2023-05-20T07:01:23.279Z,53.80
2023-05-20T07:03:50.582Z,53.60
2023-05-20T07:06:17.942Z,53.60
2023-05-20T07:08:45.076Z,53.90
2023-05-20T07:11:12.733Z,53.70
2023-05-20T07:13:39.963Z,53.90
2023-05-20T07:16:07.413Z,53.70
2023-05-20T07:18:40.291Z,53.80
2023-05-20T07:21:07.293Z,53.80
2023-05-20T07:23:57.161Z,54.00
2023-05-20T07:26:24.283Z,54.20
2023-05-20T07:28:52.021Z,54.20
2023-05-20T07:31:19.053Z,53.90
2023-05-20T07:33:46.699Z,54.10
2023-05-20T07:36:13.716Z,53.90
2023-05-20T07:38:49.957Z,53.40
2023-05-20T07:41:29.004Z,53.70
2023-05-20T07:43:56.651Z,53.40
2023-05-20T07:46:23.793Z,53.20
2023-05-20T07:48:51.266Z,52.50
2023-05-20T07:51:19.031Z,52.50
2023-05-20T07:53:46.259Z,51.60
2023-05-20T07:56:13.435Z,52.60
2023-05-20T07:58:43.873Z,52.30
2023-05-20T08:01:11.718Z,52.40
2023-05-20T08:03:38.776Z,53.10
2023-05-20T08:06:13.128Z,52.10
2023-05-20T08:08:41.481Z,51.50
2023-05-20T08:11:14.345Z,51.60
2023-05-20T08:13:42.242Z,51.10
2023-05-20T08:16:09.942Z,51.10
2023-05-20T08:18:37.964Z,52.10
2023-05-20T08:21:09.971Z,51.20
2023-05-20T08:23:39.681Z,51.00
2023-05-20T08:26:07.898Z,49.90
2023-05-20T08:28:38.236Z,51.90
2023-05-20T08:31:05.646Z,51.40
2023-05-20T08:33:33.415Z,52.50
2023-05-20T08:36:00.944Z,51.90
2023-05-20T08:38:28.716Z,51.40
2023-05-20T08:40:57.837Z,50.70
2023-05-20T08:43:26.443Z,49.40
2023-05-20T08:45:53.722Z,50.20
2023-05-20T08:48:24.923Z,49.40
2023-05-20T08:50:53.568Z,49.60
2023-05-20T08:53:24.026Z,48.20
2023-05-20T08:56:00.936Z,49.30
2023-05-20T08:58:29.459Z,49.60
2023-05-20T09:00:56.579Z,49.40
2023-05-20T09:03:24.450Z,49.40
2023-05-20T09:05:52.910Z,50.30
2023-05-20T09:08:26.438Z,49.80
2023-05-20T09:10:54.451Z,49.90
2023-05-20T09:13:23.640Z,50.40
2023-05-20T09:15:51.049Z,49.80
2023-05-20T09:18:18.267Z,50.10
2023-05-20T09:20:47.799Z,51.30
2023-05-20T09:23:14.800Z,49.70
2023-05-20T09:25:42.165Z,49.70
2023-05-20T09:28:09.481Z,50.90
2023-05-20T09:30:36.689Z,50.20
2023-05-20T09:33:05.475Z,47.90
2023-05-20T09:35:37.798Z,49.20
2023-05-20T09:38:07.695Z,50.70
2023-05-20T09:40:37.886Z,48.80
2023-05-20T09:43:11.367Z,49.80
2023-05-20T09:45:38.985Z,49.70
2023-05-20T09:48:07.138Z,50.40
2023-05-20T09:50:35.134Z,50.10
2023-05-20T09:53:03.790Z,48.90
2023-05-20T09:55:31.747Z,49.00
2023-05-20T09:58:02.760Z,51.30
2023-05-20T10:00:30.175Z,50.40
2023-05-20T10:02:57.794Z,46.70
2023-05-20T10:05:33.550Z,51.00
2023-05-20T10:08:03.809Z,49.50
2023-05-20T10:10:56.855Z,50.70
2023-05-20T10:13:32.515Z,49.60
2023-05-20T10:16:13.787Z,49.50
2023-05-20T10:19:23.550Z,49.10
2023-05-20T10:22:06.567Z,51.60
2023-05-20T10:24:41.540Z,50.60
2023-05-20T10:27:14.834Z,49.60
2023-05-20T10:29:43.281Z,49.80
2023-05-20T10:32:10.339Z,49.70
2023-05-20T10:34:48.969Z,51.10
2023-05-20T10:37:25.895Z,50.70
2023-05-20T10:39:53.283Z,50.90
2023-05-20T10:42:31.384Z,51.10
2023-05-20T10:44:58.493Z,50.90
2023-05-20T10:47:26.509Z,51.40
2023-05-20T10:49:56.673Z,49.30
2023-05-20T10:52:24.679Z,50.30
2023-05-20T10:54:57.280Z,50.70
2023-05-20T10:57:26.490Z,49.60
2023-05-20T10:59:53.844Z,50.60
2023-05-20T11:02:28.867Z,50.30
2023-05-20T11:04:59.560Z,47.80
2023-05-20T11:07:26.943Z,49.80
2023-05-20T11:09:53.943Z,50.30
2023-05-20T11:12:23.575Z,48.50
2023-05-20T11:14:50.676Z,48.30
2023-05-20T11:17:19.285Z,50.40
2023-05-20T11:19:50.583Z,51.50
2023-05-20T11:22:17.630Z,49.20
2023-05-20T11:24:44.640Z,50.30
2023-05-20T11:27:11.726Z,51.10
2023-05-20T11:29:40.696Z,50.30
2023-05-20T11:32:08.572Z,50.60
2023-05-20T11:34:39.468Z,50.40
2023-05-20T11:37:11.131Z,51.10
2023-05-20T11:39:38.930Z,48.80
2023-05-20T11:42:06.581Z,51.30
2023-05-20T11:44:34.176Z,49.30
2023-05-20T11:47:03.275Z,49.00
2023-05-20T11:49:31.079Z,50.40
2023-05-20T11:51:58.599Z,49.40
2023-05-20T11:54:26.291Z,49.70
2023-05-20T11:56:55.904Z,50.40
2023-05-20T11:59:24.886Z,50.20
2023-05-20T12:01:52.047Z,49.80
2023-05-20T12:04:19.226Z,49.70
2023-05-20T12:06:46.875Z,48.90
2023-05-20T12:09:14.302Z,50.00
2023-05-20T12:11:41.941Z,51.40
2023-05-20T12:14:09.906Z,49.90
2023-05-20T12:16:38.080Z,50.30
2023-05-20T12:19:05.473Z,49.60
2023-05-20T12:21:32.670Z,49.20
2023-05-20T12:23:59.841Z,51.30
2023-05-20T12:26:27.982Z,49.80
2023-05-20T12:28:55.592Z,50.60
2023-05-20T12:31:22.746Z,50.20
2023-05-20T12:33:49.912Z,49.40
2023-05-20T12:36:16.930Z,50.70
2023-05-20T12:38:43.961Z,50.40
2023-05-20T12:41:11.374Z,49.60
2023-05-20T12:43:38.400Z,51.00
2023-05-20T12:46:06.011Z,51.70
2023-05-20T12:48:33.001Z,48.60
2023-05-20T12:51:00.541Z,51.60
2023-05-20T12:53:27.573Z,49.90
2023-05-20T12:55:54.814Z,50.30
2023-05-20T12:58:21.932Z,49.90
2023-05-20T13:00:49.339Z,51.00
2023-05-20T13:03:17.280Z,50.80
2023-05-20T13:05:44.789Z,50.30
2023-05-20T13:08:12.729Z,51.20
2023-05-20T13:10:39.799Z,50.20
2023-05-20T13:13:06.760Z,49.60
2023-05-20T13:15:33.879Z,49.80
2023-05-20T13:18:01.602Z,50.60
2023-05-20T13:20:29.990Z,50.70
2023-05-20T13:22:57.085Z,50.00
2023-05-20T13:25:24.484Z,50.90
2023-05-20T13:27:51.862Z,51.50
2023-05-20T13:30:18.959Z,50.10
2023-05-20T13:32:46.436Z,51.00
2023-05-20T13:35:14.638Z,51.30
2023-05-20T13:37:41.783Z,51.10
2023-05-20T13:40:09.568Z,51.40
2023-05-20T13:42:36.732Z,50.30
2023-05-20T13:45:04.347Z,50.70
2023-05-20T13:47:31.381Z,50.90
2023-05-20T13:49:59.608Z,51.40
2023-05-20T13:52:28.334Z,49.50
2023-05-20T13:54:55.507Z,50.80
2023-05-20T13:57:23.933Z,51.90
2023-05-20T13:59:50.973Z,51.50
2023-05-20T14:02:18.636Z,52.50
2023-05-20T14:04:47.090Z,52.40
2023-05-20T14:07:14.315Z,51.40
2023-05-20T14:09:41.352Z,52.40
2023-05-20T14:12:08.803Z,51.60
2023-05-20T14:14:35.911Z,50.70
2023-05-20T14:17:03.013Z,53.10
2023-05-20T14:19:30.095Z,52.40
2023-05-20T14:21:58.959Z,52.20
2023-05-20T14:24:25.910Z,52.60
2023-05-20T14:26:53.234Z,52.00
2023-05-20T14:29:20.416Z,51.80
2023-05-20T14:31:47.486Z,50.20
2023-05-20T14:34:14.579Z,51.50
2023-05-20T14:36:41.929Z,52.30
2023-05-20T14:39:09.738Z,50.90
2023-05-20T14:41:36.846Z,51.20
2023-05-20T14:44:03.940Z,52.50
2023-05-20T14:46:31.304Z,51.30
2023-05-20T14:48:58.414Z,52.30
2023-05-20T14:51:25.437Z,50.70
2023-05-20T14:53:52.532Z,52.70
2023-05-20T14:56:19.538Z,51.00
2023-05-20T14:58:46.636Z,52.40
2023-05-20T15:01:13.838Z,52.30
2023-05-20T15:03:40.993Z,52.50
2023-05-20T15:06:07.983Z,52.70
2023-05-20T15:08:35.156Z,52.00
2023-05-20T15:11:02.159Z,52.00
2023-05-20T15:13:29.306Z,52.30
2023-05-20T15:15:56.528Z,53.00
2023-05-20T15:18:23.647Z,52.30
2023-05-20T15:20:50.611Z,51.90
2023-05-20T15:23:17.749Z,52.70
2023-05-20T15:25:44.849Z,52.70
2023-05-20T15:28:11.898Z,51.80
2023-05-20T15:30:38.887Z,51.40
2023-05-20T15:33:06.301Z,52.60
2023-05-20T15:35:40.714Z,52.70
2023-05-20T15:38:07.717Z,52.30
2023-05-20T15:40:34.941Z,51.40
2023-05-20T15:43:02.223Z,51.50
2023-05-20T15:45:31.336Z,52.80
2023-05-20T15:47:58.514Z,51.30
2023-05-20T15:50:25.982Z,51.80
2023-05-20T15:52:53.176Z,52.10
2023-05-20T15:55:20.898Z,52.50
2023-05-20T15:57:47.894Z,53.00
2023-05-20T16:00:18.424Z,51.40
2023-05-20T16:02:46.152Z,53.10
2023-05-20T16:05:13.373Z,51.80
2023-05-20T16:07:42.770Z,52.30
2023-05-20T16:10:10.694Z,52.60
2023-05-20T16:12:37.838Z,52.10
2023-05-20T16:15:05.212Z,52.60
2023-05-20T16:17:32.276Z,53.00
2023-05-20T16:19:59.273Z,52.50
2023-05-20T16:22:26.491Z,52.40
2023-05-20T16:24:53.582Z,53.30
2023-05-20T16:27:20.657Z,53.00
2023-05-20T16:29:47.700Z,53.10
2023-05-20T16:32:14.761Z,52.80
2023-05-20T16:34:41.809Z,52.00
2023-05-20T16:37:10.225Z,52.40
2023-05-20T16:39:37.204Z,52.10
2023-05-20T16:42:04.497Z,53.10
2023-05-20T16:44:31.562Z,52.80
2023-05-20T16:46:58.467Z,52.20
2023-05-20T16:49:25.586Z,51.90
2023-05-20T16:51:52.857Z,52.90
2023-05-20T16:54:19.958Z,53.20
2023-05-20T16:56:46.902Z,53.20
2023-05-20T16:59:14.672Z,53.00
2023-05-20T17:01:41.735Z,53.30
2023-05-20T17:04:09.294Z,53.40
2023-05-20T17:06:36.404Z,53.40
2023-05-20T17:09:04.655Z,53.50
2023-05-20T17:11:31.744Z,53.20
2023-05-20T17:13:58.711Z,53.20
2023-05-20T17:16:25.959Z,53.30
2023-05-20T17:18:53.676Z,53.10
2023-05-20T17:21:21.037Z,53.00
2023-05-20T17:23:48.119Z,52.80
2023-05-20T17:26:15.979Z,52.60
2023-05-20T17:28:43.180Z,53.50
2023-05-20T17:31:10.277Z,53.30
2023-05-20T17:33:37.522Z,53.20
2023-05-20T17:36:04.909Z,53.20
2023-05-20T17:38:31.924Z,53.40
2023-05-20T17:40:58.995Z,52.70
2023-05-20T17:43:26.166Z,52.90
2023-05-20T17:45:53.425Z,53.00
2023-05-20T17:48:20.843Z,53.20
2023-05-20T17:50:47.832Z,52.60
2023-05-20T17:53:14.907Z,53.10
2023-05-20T17:55:41.849Z,53.00
2023-05-20T17:58:08.930Z,52.90
2023-05-20T18:00:41.947Z,52.70
2023-05-20T18:03:10.038Z,53.00
2023-05-20T18:05:37.274Z,53.40
2023-05-20T18:08:04.532Z,52.60
2023-05-20T18:10:31.568Z,52.80
2023-05-20T18:12:58.547Z,52.50
2023-05-20T18:15:25.577Z,52.70
2023-05-20T18:17:52.812Z,52.50
2023-05-20T18:20:20.073Z,52.80
2023-05-20T18:22:47.457Z,53.00
2023-05-20T18:25:15.171Z,52.90
2023-05-20T18:27:42.784Z,52.70
2023-05-20T18:30:10.673Z,52.70
2023-05-20T18:32:38.868Z,53.00
2023-05-20T18:35:06.469Z,52.70
2023-05-20T18:37:33.463Z,52.70
2023-05-20T18:40:00.528Z,52.20
2023-05-20T18:42:27.554Z,52.40
2023-05-20T18:44:54.682Z,52.70
2023-05-20T18:47:21.840Z,52.70
2023-05-20T18:49:48.852Z,52.50
2023-05-20T18:52:15.885Z,52.40
2023-05-20T18:54:42.873Z,52.50
2023-05-20T18:57:10.184Z,52.30
2023-05-20T18:59:37.185Z,52.30
2023-05-20T19:02:04.289Z,53.20
2023-05-20T19:04:31.516Z,52.50
2023-05-20T19:06:59.156Z,53.20
2023-05-20T19:09:26.107Z,52.50
2023-05-20T19:11:56.790Z,52.70
2023-05-20T19:14:23.777Z,52.50
2023-05-20T19:16:51.016Z,52.60
2023-05-20T19:19:18.257Z,52.40
2023-05-20T19:21:46.118Z,52.70
2023-05-20T19:24:13.177Z,52.50
2023-05-20T19:26:40.198Z,52.30
2023-05-20T19:29:07.146Z,52.40
2023-05-20T19:31:34.279Z,52.80
2023-05-20T19:34:01.340Z,52.70
2023-05-20T19:36:28.337Z,52.50
2023-05-20T19:38:56.007Z,52.60
2023-05-20T19:41:22.996Z,52.50
2023-05-20T19:43:50.052Z,52.70
2023-05-20T19:46:17.241Z,52.70
2023-05-20T19:48:47.084Z,52.60
2023-05-20T19:51:14.139Z,52.70
2023-05-20T19:53:41.171Z,52.80
2023-05-20T19:56:08.323Z,52.80
2023-05-20T19:58:35.592Z,52.90
2023-05-20T20:01:02.684Z,53.50
2023-05-20T20:03:30.025Z,53.00
2023-05-20T20:05:57.355Z,53.20
2023-05-20T20:08:24.448Z,53.30
2023-05-20T20:10:51.482Z,53.00
2023-05-20T20:13:18.506Z,53.30
2023-05-20T20:15:45.571Z,53.40
2023-05-20T20:18:12.567Z,53.60
2023-05-20T20:20:42.613Z,53.40
2023-05-20T20:23:09.854Z,53.80
2023-05-20T20:25:38.961Z,54.00
2023-05-20T20:28:07.350Z,54.20
2023-05-20T20:30:35.129Z,54.30
2023-05-20T20:33:07.067Z,54.40
2023-05-20T20:35:34.788Z,54.80
2023-05-20T20:38:08.497Z,55.10
2023-05-20T20:40:41.769Z,55.20
2023-05-20T20:43:10.924Z,55.20
2023-05-20T20:45:38.056Z,55.30
2023-05-20T20:48:07.756Z,55.40
2023-05-20T20:50:36.577Z,55.80
2023-05-20T20:53:03.805Z,55.70
2023-05-20T20:55:30.934Z,56.00
2023-05-20T20:58:02.803Z,56.00
2023-05-20T21:00:29.977Z,56.00
2023-05-20T21:02:56.998Z,55.70
2023-05-20T21:05:26.591Z,55.50
2023-05-20T21:07:58.226Z,55.40
2023-05-20T21:10:29.768Z,55.50
2023-05-20T21:12:58.044Z,55.60
2023-05-20T21:15:26.198Z,55.70
2023-05-20T21:17:53.529Z,55.70
2023-05-20T21:20:21.783Z,55.80
2023-05-20T21:22:49.098Z,55.80
2023-05-20T21:25:16.147Z,55.90
2023-05-20T21:27:43.295Z,56.10
2023-05-20T21:30:11.360Z,56.10
2023-05-20T21:32:38.691Z,56.20
2023-05-20T21:35:06.158Z,56.20
2023-05-20T21:37:33.172Z,56.50
2023-05-20T21:40:00.561Z,56.40
2023-05-20T21:42:28.024Z,56.40
2023-05-20T21:44:55.563Z,56.50
2023-05-20T21:47:22.542Z,56.60
2023-05-20T21:49:49.587Z,56.60
2023-05-20T21:52:16.564Z,56.60
2023-05-20T21:54:43.781Z,56.60
2023-05-20T21:57:10.762Z,56.70
2023-05-20T21:59:37.727Z,56.80
2023-05-20T22:02:04.985Z,57.00
2023-05-20T22:04:33.466Z,57.00
2023-05-20T22:07:00.924Z,57.10
2023-05-20T22:09:28.008Z,57.10
2023-05-20T22:11:55.258Z,57.30
2023-05-20T22:14:22.268Z,57.40
2023-05-20T22:16:49.539Z,57.50
2023-05-20T22:19:17.537Z,57.40
2023-05-20T22:21:50.746Z,57.50
2023-05-20T22:24:18.446Z,57.50
2023-05-20T22:26:45.767Z,57.60
2023-05-20T22:29:12.831Z,57.60
2023-05-20T22:31:39.910Z,57.30
2023-05-20T22:34:07.030Z,57.40
2023-05-20T22:36:34.307Z,57.50
2023-05-20T22:39:02.340Z,57.50
2023-05-20T22:41:29.703Z,57.40
2023-05-20T22:43:56.886Z,57.40
2023-05-20T22:46:24.254Z,57.00
2023-05-20T22:48:55.464Z,56.90
2023-05-20T22:51:22.836Z,56.50
2023-05-20T22:53:50.998Z,56.50
2023-05-20T22:56:18.536Z,56.00
2023-05-20T22:58:45.897Z,55.50
2023-05-20T23:01:13.369Z,55.10
2023-05-20T23:03:40.560Z,54.90
2023-05-20T23:06:07.817Z,54.90
2023-05-20T23:08:34.804Z,54.20
2023-05-20T23:11:01.810Z,54.20
2023-05-20T23:13:28.863Z,54.20
2023-05-20T23:15:55.866Z,54.00
2023-05-20T23:18:22.918Z,53.70
2023-05-20T23:20:50.700Z,53.70
2023-05-20T23:23:20.761Z,53.90
2023-05-20T23:25:54.932Z,54.00
2023-05-20T23:28:22.233Z,53.70
2023-05-20T23:30:49.480Z,53.60
2023-05-20T23:33:17.412Z,53.80
2023-05-20T23:35:44.671Z,53.70
2023-05-20T23:38:11.664Z,53.80
2023-05-20T23:40:38.599Z,53.90
2023-05-20T23:43:05.586Z,54.10
2023-05-20T23:45:32.531Z,53.80
2023-05-20T23:48:01.314Z,54.00
2023-05-20T23:50:28.355Z,54.00
2023-05-20T23:52:55.358Z,54.00
2023-05-20T23:55:22.405Z,54.40
2023-05-20T23:57:49.914Z,54.50
